X  Fechar Dados meteorológicos de METAR da aviação     LYNI Nis Airport
Temperatura
34°F Temperatura
30°F Ponto de orvalho
87% Umidade



Vento
13 MPH
21 KM/H
6 M/S
11 NÓS



310°
NO
Condições atuais

Leve Neve Leve Neve
Pressão 1023.92 (hPa) - 30.24 (inHg)
Visibilidade 6.2 (milha) - 10 (km)
Aeroporto
Código do aeroporto LYNI

Localização: Nis Airport
Distância: 63 (mi)

Metar:
LYNI 290930Z 31011KT 9999 -SN SCT007 BKN010 OVC020 01/M01 Q1024 NOSIG

Hora: 29-01-2023 10:30 CET